createdAt,value
2018-09-22T00:00:01.949Z,12.94
2018-09-22T00:01:01.970Z,12.95
2018-09-22T00:02:54.964Z,12.97
2018-09-22T00:03:55.017Z,12.94
2018-09-22T00:05:48.008Z,12.94
2018-09-22T00:06:48.061Z,12.93
2018-09-22T00:08:41.044Z,12.94
2018-09-22T00:09:41.104Z,12.87
2018-09-22T00:11:34.095Z,12.87
2018-09-22T00:12:34.148Z,12.83
2018-09-22T00:14:27.130Z,12.75
2018-09-22T00:15:27.191Z,12.78
2018-09-22T00:17:20.184Z,12.67
2018-09-22T00:18:20.236Z,12.79
2018-09-22T00:20:13.229Z,12.75
2018-09-22T00:21:13.284Z,12.72
2018-09-22T00:23:06.269Z,12.72
2018-09-22T00:24:06.327Z,12.76
2018-09-22T00:25:59.828Z,12.82
2018-09-22T00:26:59.878Z,12.70
2018-09-22T00:28:52.861Z,12.76
2018-09-22T00:29:52.921Z,12.61
2018-09-22T00:31:45.913Z,12.62
2018-09-22T00:32:45.962Z,12.72
2018-09-22T00:34:38.950Z,12.72
2018-09-22T00:35:39.008Z,12.68
2018-09-22T00:37:32.000Z,12.64
2018-09-22T00:38:32.053Z,12.64
2018-09-22T00:40:25.043Z,12.64
2018-09-22T00:41:25.096Z,12.49
2018-09-22T00:43:18.079Z,12.53
2018-09-22T00:44:18.139Z,12.47
2018-09-22T00:46:11.130Z,12.45
2018-09-22T00:47:11.188Z,12.42
2018-09-22T00:49:04.174Z,12.43
2018-09-22T00:50:04.227Z,12.42
2018-09-22T00:51:57.219Z,12.49
2018-09-22T00:52:57.268Z,12.40
2018-09-22T00:54:50.252Z,12.42
2018-09-22T00:55:50.311Z,12.35
2018-09-22T00:57:43.310Z,12.39
2018-09-22T00:58:43.359Z,12.35
2018-09-22T01:00:36.339Z,12.29
2018-09-22T01:01:36.398Z,12.29
2018-09-22T01:03:29.387Z,12.32
2018-09-22T01:04:29.440Z,12.29
2018-09-22T01:06:22.430Z,12.36
2018-09-22T01:07:22.482Z,12.27
2018-09-22T01:09:15.465Z,12.28
2018-09-22T01:10:15.525Z,12.27
2018-09-22T01:12:08.517Z,12.22
2018-09-22T01:13:08.568Z,12.27
2018-09-22T01:15:01.551Z,12.22
2018-09-22T01:16:01.610Z,12.27
2018-09-22T01:17:54.605Z,12.17
2018-09-22T01:18:54.654Z,12.12
2018-09-22T01:20:47.636Z,12.12
2018-09-22T01:21:47.696Z,12.20
2018-09-22T01:23:40.733Z,12.12
2018-09-22T01:24:40.738Z,12.06
2018-09-22T01:26:34.230Z,12.10
2018-09-22T01:27:34.286Z,12.10
2018-09-22T01:29:27.280Z,12.13
2018-09-22T01:30:27.329Z,12.09
2018-09-22T01:32:20.320Z,12.10
2018-09-22T01:33:20.373Z,12.09
2018-09-22T01:35:13.353Z,12.10
2018-09-22T01:36:13.413Z,12.13
2018-09-22T01:38:06.426Z,12.17
2018-09-22T01:39:06.465Z,12.13
2018-09-22T01:40:59.447Z,12.06
2018-09-22T01:41:59.542Z,12.06
2018-09-22T01:43:52.493Z,12.06
2018-09-22T01:44:52.546Z,12.04
2018-09-22T01:46:45.533Z,12.06
2018-09-22T01:47:45.590Z,12.06
2018-09-22T01:49:38.583Z,12.00
2018-09-22T01:50:38.635Z,12.06
2018-09-22T01:52:31.697Z,12.07
2018-09-22T01:53:31.676Z,12.04
2018-09-22T01:55:24.660Z,12.02
2018-09-22T01:56:24.719Z,12.04
2018-09-22T01:58:17.709Z,11.94
2018-09-22T01:59:17.760Z,11.94
2018-09-22T02:01:10.747Z,11.95
2018-09-22T02:02:10.806Z,11.90
2018-09-22T02:04:03.796Z,11.87
2018-09-22T02:05:03.844Z,11.86
2018-09-22T02:06:56.830Z,11.88
2018-09-22T02:07:56.890Z,11.88
2018-09-22T02:09:49.883Z,11.90
2018-09-22T02:10:49.934Z,11.88
2018-09-22T02:12:42.918Z,11.94
2018-09-22T02:13:42.973Z,11.88
2018-09-22T02:15:35.965Z,11.86
2018-09-22T02:16:36.017Z,11.91
2018-09-22T02:18:29.007Z,11.90
2018-09-22T02:19:29.058Z,11.90
2018-09-22T02:21:22.043Z,11.84
2018-09-22T02:22:22.102Z,11.87
2018-09-22T02:24:15.129Z,11.80
2018-09-22T02:25:15.144Z,11.77
2018-09-22T02:27:08.128Z,11.84
2018-09-22T02:28:08.187Z,11.80
2018-09-22T02:30:01.175Z,11.91
2018-09-22T02:31:01.226Z,11.86
2018-09-22T02:32:54.211Z,11.75
2018-09-22T02:33:54.267Z,11.72
2018-09-22T02:35:47.266Z,11.70
2018-09-22T02:36:47.312Z,11.73
2018-09-22T02:38:40.292Z,11.70
2018-09-22T02:39:40.353Z,11.68
2018-09-22T02:41:33.350Z,11.73
2018-09-22T02:42:33.399Z,11.73
2018-09-22T02:44:26.393Z,11.75
2018-09-22T02:45:26.441Z,11.77
2018-09-22T02:47:19.426Z,11.81
2018-09-22T02:48:19.487Z,11.80
2018-09-22T02:50:12.482Z,11.83
2018-09-22T02:51:12.531Z,11.78
2018-09-22T02:53:05.513Z,11.73
2018-09-22T02:54:05.573Z,11.72
2018-09-22T02:55:58.563Z,11.70
2018-09-22T02:56:58.645Z,11.78
2018-09-22T02:58:51.597Z,11.66
2018-09-22T02:59:51.656Z,11.68
2018-09-22T03:01:44.645Z,11.69
2018-09-22T03:02:44.698Z,11.72
2018-09-22T03:04:37.699Z,11.73
2018-09-22T03:05:37.737Z,11.75
2018-09-22T03:07:30.733Z,11.73
2018-09-22T03:08:30.782Z,11.73
2018-09-22T03:10:23.775Z,11.78
2018-09-22T03:11:23.827Z,11.70
2018-09-22T03:13:16.809Z,11.73
2018-09-22T03:14:16.867Z,11.72
2018-09-22T03:16:09.859Z,11.73
2018-09-22T03:17:09.911Z,11.75
2018-09-22T03:19:02.902Z,11.78
2018-09-22T03:20:02.955Z,11.78
2018-09-22T03:21:55.948Z,11.75
2018-09-22T03:22:55.997Z,11.69
2018-09-22T03:24:48.981Z,11.70
2018-09-22T03:25:49.040Z,11.78
2018-09-22T03:27:42.032Z,11.73
2018-09-22T03:28:42.084Z,11.73
2018-09-22T03:30:35.076Z,11.72
2018-09-22T03:31:35.127Z,11.78
2018-09-22T03:33:28.107Z,11.80
2018-09-22T03:34:28.166Z,11.77
2018-09-22T03:36:21.159Z,11.70
2018-09-22T03:37:21.210Z,11.75
2018-09-22T03:39:14.195Z,11.80
2018-09-22T03:40:14.255Z,11.80
2018-09-22T03:42:07.249Z,11.90
2018-09-22T03:43:07.300Z,11.73
2018-09-22T03:45:00.280Z,11.84
2018-09-22T03:46:00.377Z,11.83
2018-09-22T03:47:53.335Z,11.91
2018-09-22T03:48:53.380Z,11.91
2018-09-22T03:50:46.366Z,11.97
2018-09-22T03:51:46.425Z,12.04
2018-09-22T03:53:39.411Z,12.06
2018-09-22T03:54:39.463Z,12.00
2018-09-22T03:56:32.453Z,12.00
2018-09-22T03:57:32.506Z,12.06
2018-09-22T03:59:25.498Z,12.06
2018-09-22T04:00:25.558Z,12.07
2018-09-22T04:02:18.548Z,12.20
2018-09-22T04:03:18.602Z,12.09
2018-09-22T04:05:11.583Z,12.12
2018-09-22T04:06:11.644Z,12.13
2018-09-22T04:08:04.634Z,12.22
2018-09-22T04:09:04.687Z,12.09
2018-09-22T04:10:57.668Z,12.18
2018-09-22T04:11:57.729Z,12.09
2018-09-22T04:13:50.719Z,12.18
2018-09-22T04:14:50.769Z,12.12
2018-09-22T04:16:43.762Z,12.13
2018-09-22T04:17:43.812Z,12.03
2018-09-22T04:19:36.804Z,12.02
2018-09-22T04:20:36.853Z,11.99
2018-09-22T04:22:29.846Z,12.04
2018-09-22T04:23:29.906Z,11.99
2018-09-22T04:25:22.879Z,11.94
2018-09-22T04:26:22.938Z,11.95
2018-09-22T04:28:15.929Z,12.00
2018-09-22T04:29:15.980Z,11.90
2018-09-22T04:31:08.962Z,12.03
2018-09-22T04:32:09.021Z,11.94
2018-09-22T04:34:02.014Z,12.04
2018-09-22T04:35:02.065Z,11.97
2018-09-22T04:36:55.047Z,12.10
2018-09-22T04:37:55.104Z,12.04
2018-09-22T04:39:48.095Z,12.03
2018-09-22T04:40:48.151Z,12.04
2018-09-22T04:42:41.149Z,12.04
2018-09-22T04:43:41.188Z,12.07
2018-09-22T04:45:34.173Z,12.04
2018-09-22T04:46:34.229Z,11.90
2018-09-22T04:48:27.220Z,11.90
2018-09-22T04:49:27.275Z,11.91
2018-09-22T04:51:20.259Z,11.88
2018-09-22T04:52:20.319Z,11.87
2018-09-22T04:54:13.307Z,12.00
2018-09-22T04:55:13.358Z,11.90
2018-09-22T04:57:06.344Z,11.95
2018-09-22T04:58:06.402Z,11.88
2018-09-22T04:59:59.401Z,11.97
2018-09-22T05:00:59.456Z,11.90
2018-09-22T05:02:52.443Z,11.99
2018-09-22T05:03:52.495Z,11.97
2018-09-22T05:05:45.482Z,12.02
2018-09-22T05:06:45.542Z,11.94
2018-09-22T05:08:38.534Z,11.94
2018-09-22T05:09:38.588Z,11.90
2018-09-22T05:11:31.573Z,12.00
2018-09-22T05:12:31.631Z,11.88
2018-09-22T05:14:24.624Z,12.04
2018-09-22T05:15:24.680Z,12.03
2018-09-22T05:17:17.656Z,12.00
2018-09-22T05:18:17.717Z,12.06
2018-09-22T05:20:10.709Z,11.99
2018-09-22T05:21:10.770Z,11.91
2018-09-22T05:23:03.743Z,11.97
2018-09-22T05:24:03.800Z,11.97
2018-09-22T05:25:56.789Z,12.00
2018-09-22T05:26:56.842Z,12.04
2018-09-22T05:28:49.845Z,12.04
2018-09-22T05:29:49.884Z,12.04
2018-09-22T05:31:42.872Z,12.07
2018-09-22T05:32:42.929Z,11.99
2018-09-22T05:34:35.925Z,12.04
2018-09-22T05:35:35.970Z,12.00
2018-09-22T05:37:28.955Z,12.04
2018-09-22T05:38:29.013Z,12.00
2018-09-22T05:40:22.002Z,12.04
2018-09-22T05:41:22.056Z,12.10
2018-09-22T05:43:15.037Z,12.06
2018-09-22T05:44:15.096Z,11.97
2018-09-22T05:46:08.085Z,12.02
2018-09-22T05:47:08.142Z,11.99
2018-09-22T05:49:01.123Z,12.04
2018-09-22T05:50:01.181Z,12.06
2018-09-22T05:51:54.175Z,12.00
2018-09-22T05:52:54.229Z,12.03
2018-09-22T05:54:47.219Z,12.06
2018-09-22T05:55:47.270Z,12.15
2018-09-22T05:57:40.247Z,12.15
2018-09-22T05:58:40.306Z,12.21
2018-09-22T06:00:33.295Z,12.21
2018-09-22T06:01:33.349Z,12.28
2018-09-22T06:03:26.348Z,12.37
2018-09-22T06:04:26.391Z,12.37
2018-09-22T06:06:19.381Z,12.43
2018-09-22T06:07:19.436Z,12.43
2018-09-22T06:09:12.421Z,12.57
2018-09-22T06:10:12.478Z,12.58
2018-09-22T06:12:05.527Z,12.50
2018-09-22T06:13:05.578Z,12.57
2018-09-22T06:14:58.570Z,12.54
2018-09-22T06:15:58.631Z,12.50
2018-09-22T06:17:51.617Z,12.61
2018-09-22T06:18:51.671Z,12.61
2018-09-22T06:20:44.673Z,12.70
2018-09-22T06:21:44.711Z,12.79
2018-09-22T06:23:37.723Z,12.95
2018-09-22T06:24:37.756Z,12.91
2018-09-22T06:26:31.255Z,12.98
2018-09-22T06:27:31.306Z,13.00
2018-09-22T06:29:24.285Z,13.13
2018-09-22T06:30:24.345Z,13.05
2018-09-22T06:32:17.334Z,13.22
2018-09-22T06:33:17.386Z,13.25
2018-09-22T06:35:10.368Z,13.18
2018-09-22T06:36:10.429Z,13.25
2018-09-22T06:38:03.418Z,13.46
2018-09-22T06:39:03.471Z,13.46
2018-09-22T06:40:56.453Z,13.54
2018-09-22T06:41:56.512Z,13.72
2018-09-22T06:43:49.499Z,13.92
2018-09-22T06:44:49.555Z,13.92
2018-09-22T06:46:42.547Z,14.29
2018-09-22T06:47:42.594Z,14.44
2018-09-22T06:49:35.579Z,14.73
2018-09-22T06:50:35.636Z,14.63
2018-09-22T06:52:28.627Z,14.23
2018-09-22T06:53:28.683Z,14.17
2018-09-22T06:55:21.659Z,14.20
2018-09-22T06:56:21.720Z,14.10
2018-09-22T06:58:14.714Z,14.25
2018-09-22T06:59:14.771Z,14.20
2018-09-22T07:01:07.750Z,14.40
2018-09-22T07:02:07.808Z,14.58
2018-09-22T07:04:00.804Z,14.97
2018-09-22T07:05:00.854Z,14.84
2018-09-22T07:06:53.836Z,15.28
2018-09-22T07:07:53.898Z,15.49
2018-09-22T07:09:46.892Z,16.12
2018-09-22T07:10:46.942Z,16.26
2018-09-22T07:12:39.934Z,17.08
2018-09-22T07:13:40.005Z,17.34
2018-09-22T07:15:32.983Z,17.76
2018-09-22T07:16:33.046Z,17.16
2018-09-22T07:18:26.044Z,17.56
2018-09-22T07:19:26.138Z,17.64
2018-09-22T07:21:19.094Z,18.63
2018-09-22T07:22:19.158Z,19.14
2018-09-22T07:24:12.160Z,19.31
2018-09-22T07:25:12.213Z,19.54
2018-09-22T07:27:05.704Z,19.59
2018-09-22T07:28:05.764Z,19.56
2018-09-22T07:29:58.764Z,19.19
2018-09-22T07:30:58.880Z,19.31
2018-09-22T07:32:51.815Z,19.76
2018-09-22T07:33:51.870Z,19.86
2018-09-22T07:35:44.868Z,18.55
2018-09-22T07:36:44.926Z,18.20
2018-09-22T07:38:37.935Z,18.05
2018-09-22T07:39:37.995Z,18.03
2018-09-22T07:41:30.993Z,17.95
2018-09-22T07:42:31.054Z,17.85
2018-09-22T07:44:24.050Z,18.71
2018-09-22T07:45:24.104Z,19.12
2018-09-22T07:47:17.095Z,20.02
2018-09-22T07:48:17.157Z,19.82
2018-09-22T07:50:10.156Z,18.77
2018-09-22T07:51:10.206Z,18.37
2018-09-22T07:53:03.203Z,18.96
2018-09-22T07:54:03.265Z,19.82
2018-09-22T07:55:56.271Z,18.96
2018-09-22T07:56:56.326Z,18.88
2018-09-22T07:58:49.340Z,20.00
2018-09-22T07:59:49.407Z,19.54
2018-09-22T08:01:42.376Z,19.81
2018-09-22T08:02:42.439Z,19.85
2018-09-22T08:04:35.438Z,19.73
2018-09-22T08:05:35.520Z,19.09
2018-09-22T08:07:28.488Z,18.55
2018-09-22T08:08:28.554Z,18.16
2018-09-22T08:10:21.555Z,19.19
2018-09-22T08:11:21.657Z,19.67
2018-09-22T08:13:14.598Z,20.21
2018-09-22T08:14:14.660Z,20.77
2018-09-22T08:16:07.660Z,19.55
2018-09-22T08:17:07.717Z,19.88
2018-09-22T08:19:00.715Z,19.74
2018-09-22T08:20:00.780Z,19.34
2018-09-22T08:21:53.782Z,19.49
2018-09-22T08:22:53.837Z,19.88
2018-09-22T08:24:46.848Z,20.25
2018-09-22T08:25:46.897Z,20.65
2018-09-22T08:27:39.892Z,21.29
2018-09-22T08:28:39.958Z,21.69
2018-09-22T08:30:32.964Z,20.80
2018-09-22T08:31:33.022Z,20.95
2018-09-22T08:33:26.023Z,20.39
2018-09-22T08:34:26.091Z,20.48
2018-09-22T08:36:19.176Z,20.02
2018-09-22T08:37:19.212Z,20.24
2018-09-22T08:39:12.144Z,21.21
2018-09-22T08:40:12.208Z,20.97
2018-09-22T08:42:05.217Z,20.84
2018-09-22T08:43:05.276Z,21.14
2018-09-22T08:44:58.340Z,20.99
2018-09-22T08:45:58.335Z,20.74
2018-09-22T08:47:51.334Z,20.92
2018-09-22T08:48:51.392Z,20.66
2018-09-22T08:50:44.394Z,20.11
2018-09-22T08:51:44.456Z,20.06
2018-09-22T08:53:37.459Z,19.85
2018-09-22T08:54:37.510Z,19.49
2018-09-22T08:56:30.511Z,18.88
2018-09-22T08:57:30.570Z,18.89
2018-09-22T08:59:23.596Z,18.78
2018-09-22T09:00:23.658Z,19.02
2018-09-22T09:02:16.625Z,19.21
2018-09-22T09:03:16.684Z,19.31
2018-09-22T09:05:09.712Z,19.48
2018-09-22T09:06:09.735Z,19.26
2018-09-22T09:08:02.734Z,19.00
2018-09-22T09:09:02.803Z,18.86
2018-09-22T09:10:55.782Z,18.99
2018-09-22T09:11:55.845Z,18.98
2018-09-22T09:13:48.904Z,18.59
2018-09-22T09:14:48.903Z,18.53
2018-09-22T09:16:41.909Z,18.60
2018-09-22T09:17:41.964Z,18.73
2018-09-22T09:19:34.959Z,18.60
2018-09-22T09:20:35.019Z,18.38
2018-09-22T09:22:28.020Z,18.47
2018-09-22T09:23:28.075Z,18.44
2018-09-22T09:25:21.103Z,18.75
2018-09-22T09:26:21.132Z,18.58
2018-09-22T09:28:14.133Z,18.49
2018-09-22T09:29:14.189Z,18.53
2018-09-22T09:31:07.183Z,18.60
2018-09-22T09:32:07.247Z,18.53
2018-09-22T09:34:00.245Z,18.43
2018-09-22T09:35:00.303Z,18.29
2018-09-22T09:36:53.298Z,18.29
2018-09-22T09:37:53.360Z,18.34
2018-09-22T09:39:46.361Z,18.70
2018-09-22T09:40:46.418Z,18.63
2018-09-22T09:42:39.423Z,18.66
2018-09-22T09:43:39.610Z,18.59
2018-09-22T09:45:32.473Z,18.63
2018-09-22T09:46:32.538Z,18.47
2018-09-22T09:48:25.533Z,18.25
2018-09-22T09:49:25.590Z,18.26
2018-09-22T09:51:18.588Z,18.45
2018-09-22T09:52:18.649Z,18.56
2018-09-22T09:54:11.649Z,18.65
2018-09-22T09:55:11.728Z,18.63
2018-09-22T09:57:04.697Z,18.34
2018-09-22T09:58:04.761Z,18.35
2018-09-22T09:59:57.760Z,18.41
2018-09-22T10:00:57.817Z,18.47
2018-09-22T10:02:50.809Z,18.58
2018-09-22T10:03:50.871Z,18.74
2018-09-22T10:05:43.873Z,18.73
2018-09-22T10:06:43.933Z,18.71
2018-09-22T10:08:36.934Z,18.77
2018-09-22T10:09:36.997Z,18.83
2018-09-22T10:11:29.992Z,19.02
2018-09-22T10:12:30.051Z,18.99
2018-09-22T10:14:23.049Z,19.27
2018-09-22T10:15:23.198Z,19.24
2018-09-22T10:17:16.097Z,19.37
2018-09-22T10:18:16.160Z,19.31
2018-09-22T10:20:09.212Z,19.31
2018-09-22T10:21:09.223Z,19.40
2018-09-22T10:23:02.221Z,19.41
2018-09-22T10:24:02.277Z,19.22
2018-09-22T10:25:55.785Z,19.14
2018-09-22T10:26:55.840Z,18.96
2018-09-22T10:28:48.893Z,18.88
2018-09-22T10:29:48.903Z,19.02
2018-09-22T10:31:41.900Z,19.44
2018-09-22T10:32:41.964Z,19.59
2018-09-22T10:34:34.963Z,19.89
2018-09-22T10:35:35.019Z,19.91
2018-09-22T10:37:28.010Z,19.64
2018-09-22T10:38:28.073Z,19.76
2018-09-22T10:40:21.074Z,19.47
2018-09-22T10:41:21.133Z,19.55
2018-09-22T10:43:14.124Z,19.30
2018-09-22T10:44:14.187Z,19.39
2018-09-22T10:46:07.187Z,19.51
2018-09-22T10:47:07.246Z,19.41
2018-09-22T10:49:00.245Z,19.44
2018-09-22T10:50:00.307Z,19.52
2018-09-22T10:51:53.304Z,19.48
2018-09-22T10:52:53.420Z,19.34
2018-09-22T10:54:46.351Z,19.54
2018-09-22T10:55:46.415Z,19.55
2018-09-22T10:57:39.417Z,19.47
2018-09-22T10:58:39.476Z,19.51
2018-09-22T11:00:32.476Z,19.52
2018-09-22T11:01:32.532Z,19.66
2018-09-22T11:03:25.584Z,19.64
2018-09-22T11:04:25.600Z,19.55
2018-09-22T11:06:18.595Z,19.81
2018-09-22T11:07:18.652Z,19.71
2018-09-22T11:09:11.645Z,19.74
2018-09-22T11:10:11.707Z,19.82
2018-09-22T11:12:04.706Z,19.96
2018-09-22T11:13:04.761Z,19.92
2018-09-22T11:14:57.761Z,19.89
2018-09-22T11:15:57.820Z,19.89
2018-09-22T11:17:50.821Z,19.64
2018-09-22T11:18:50.879Z,19.41
2018-09-22T11:20:43.876Z,19.63
2018-09-22T11:21:43.934Z,19.29
2018-09-22T11:23:36.928Z,19.29
2018-09-22T11:24:36.990Z,19.21
2018-09-22T11:26:29.989Z,19.26
2018-09-22T11:27:30.049Z,19.09
2018-09-22T11:29:23.048Z,19.37
2018-09-22T11:30:23.107Z,19.41
2018-09-22T11:32:16.110Z,19.54
2018-09-22T11:33:16.163Z,19.64
2018-09-22T11:35:09.169Z,19.73
2018-09-22T11:36:09.224Z,19.58
2018-09-22T11:38:02.224Z,19.41
2018-09-22T11:39:02.281Z,19.48
2018-09-22T11:40:55.271Z,19.27
2018-09-22T11:41:55.335Z,19.30
2018-09-22T11:43:48.333Z,19.51
2018-09-22T11:44:48.392Z,19.47
2018-09-22T11:46:41.404Z,19.52
2018-09-22T11:47:41.450Z,19.41
2018-09-22T11:49:34.441Z,19.45
2018-09-22T11:50:34.510Z,19.58
2018-09-22T11:52:27.510Z,19.74
2018-09-22T11:53:27.568Z,19.71
2018-09-22T11:55:20.561Z,19.84
2018-09-22T11:56:20.683Z,19.84
2018-09-22T11:58:13.623Z,19.71
2018-09-22T11:59:13.679Z,19.85
2018-09-22T12:01:06.677Z,19.94
2018-09-22T12:02:06.742Z,20.06
2018-09-22T12:03:59.744Z,20.02
2018-09-22T12:04:59.802Z,19.86
2018-09-22T12:06:52.796Z,19.88
2018-09-22T12:07:52.859Z,19.92
2018-09-22T12:09:45.857Z,19.66
2018-09-22T12:10:45.915Z,19.67
2018-09-22T12:12:38.928Z,19.71
2018-09-22T12:13:38.972Z,19.54
2018-09-22T12:15:31.967Z,19.51
2018-09-22T12:16:32.027Z,19.52
2018-09-22T12:18:25.027Z,19.33
2018-09-22T12:19:25.085Z,19.45
2018-09-22T12:21:18.097Z,19.62
2018-09-22T12:22:18.142Z,19.40
2018-09-22T12:24:11.138Z,19.52
2018-09-22T12:25:11.199Z,19.44
2018-09-22T12:27:04.187Z,19.41
2018-09-22T12:28:04.250Z,19.44
2018-09-22T12:29:57.249Z,19.34
2018-09-22T12:30:57.307Z,19.40
2018-09-22T12:32:50.305Z,19.44
2018-09-22T12:33:50.370Z,19.34
2018-09-22T12:35:43.370Z,19.21
2018-09-22T12:36:43.423Z,19.09
2018-09-22T12:38:36.435Z,18.99
2018-09-22T12:39:36.483Z,18.99
2018-09-22T12:41:29.473Z,19.18
2018-09-22T12:42:29.537Z,19.11
2018-09-22T12:44:22.540Z,19.08
2018-09-22T12:45:22.595Z,19.07
2018-09-22T12:47:15.593Z,18.99
2018-09-22T12:48:15.650Z,19.02
2018-09-22T12:50:08.657Z,18.81
2018-09-22T12:51:08.713Z,18.81
2018-09-22T12:53:01.712Z,18.89
2018-09-22T12:54:01.773Z,19.07
2018-09-22T12:55:55.277Z,19.15
2018-09-22T12:56:55.332Z,19.00
2018-09-22T12:58:48.329Z,19.04
2018-09-22T12:59:48.392Z,19.09
2018-09-22T13:01:41.397Z,19.24
2018-09-22T13:02:41.497Z,19.27
2018-09-22T13:04:34.453Z,19.09
2018-09-22T13:05:34.507Z,19.08
2018-09-22T13:07:27.505Z,18.99
2018-09-22T13:08:27.570Z,19.02
2018-09-22T13:10:20.569Z,18.96
2018-09-22T13:11:20.625Z,18.96
2018-09-22T13:13:13.616Z,18.95
2018-09-22T13:14:13.677Z,18.86
2018-09-22T13:16:06.683Z,18.68
2018-09-22T13:17:06.741Z,18.62
2018-09-22T13:18:59.733Z,18.55
2018-09-22T13:19:59.824Z,18.33
2018-09-22T13:21:52.791Z,18.40
2018-09-22T13:22:52.854Z,18.33
2018-09-22T13:24:45.891Z,18.45
2018-09-22T13:25:45.902Z,18.52
2018-09-22T13:27:38.910Z,18.63
2018-09-22T13:28:38.968Z,18.78
2018-09-22T13:30:31.969Z,18.90
2018-09-22T13:31:32.027Z,18.84
2018-09-22T13:33:25.017Z,18.95
2018-09-22T13:34:25.083Z,19.00
2018-09-22T13:36:18.080Z,18.77
2018-09-22T13:37:18.193Z,18.78
2018-09-22T13:39:11.139Z,18.70
2018-09-22T13:40:11.201Z,18.70
2018-09-22T13:42:04.198Z,18.74
2018-09-22T13:43:04.254Z,18.81
2018-09-22T13:44:57.251Z,18.96
2018-09-22T13:45:57.310Z,18.90
2018-09-22T13:47:50.307Z,18.95
2018-09-22T13:48:50.371Z,19.16
2018-09-22T13:50:43.418Z,19.00
2018-09-22T13:51:43.425Z,18.92
2018-09-22T13:53:36.421Z,19.00
2018-09-22T13:54:36.485Z,19.14
2018-09-22T13:56:29.995Z,19.18
2018-09-22T13:57:30.048Z,19.26
2018-09-22T13:59:23.049Z,19.12
2018-09-22T14:00:23.109Z,18.99
2018-09-22T14:02:16.111Z,18.93
2018-09-22T14:03:16.170Z,18.83
2018-09-22T14:05:09.162Z,18.65
2018-09-22T14:06:09.227Z,18.49
2018-09-22T14:08:02.224Z,18.25
2018-09-22T14:09:02.278Z,18.23
2018-09-22T14:10:55.276Z,18.16
2018-09-22T14:11:55.338Z,18.22
2018-09-22T14:13:48.338Z,18.18
2018-09-22T14:14:48.392Z,18.18
2018-09-22T14:16:41.401Z,18.08
2018-09-22T14:17:41.452Z,18.15
2018-09-22T14:19:34.448Z,18.18
2018-09-22T14:20:34.510Z,18.26
2018-09-22T14:22:27.511Z,18.18
2018-09-22T14:23:27.568Z,18.18
2018-09-22T14:25:20.563Z,18.08
2018-09-22T14:26:20.624Z,17.97
2018-09-22T14:28:13.634Z,17.95
2018-09-22T14:29:13.681Z,18.07
2018-09-22T14:31:06.673Z,18.05
2018-09-22T14:32:06.739Z,17.98
2018-09-22T14:33:59.736Z,17.97
2018-09-22T14:34:59.792Z,17.97
2018-09-22T14:36:52.786Z,17.89
2018-09-22T14:37:52.850Z,17.92
2018-09-22T14:39:45.853Z,17.86
2018-09-22T14:40:45.908Z,17.87
2018-09-22T14:42:38.936Z,17.89
2018-09-22T14:43:38.987Z,17.89
2018-09-22T14:45:31.980Z,17.72
2018-09-22T14:46:32.042Z,17.76
2018-09-22T14:48:25.037Z,17.78
2018-09-22T14:49:25.092Z,17.65
2018-09-22T14:51:18.082Z,17.54
2018-09-22T14:52:18.140Z,17.44
2018-09-22T14:54:11.141Z,16.91
2018-09-22T14:55:11.195Z,16.75
2018-09-22T14:57:04.185Z,16.28
2018-09-22T14:58:04.247Z,15.92
2018-09-22T14:59:57.246Z,15.58
2018-09-22T15:00:57.306Z,15.49
2018-09-22T15:02:50.290Z,15.25
2018-09-22T15:03:50.352Z,15.22
2018-09-22T15:05:43.349Z,14.91
2018-09-22T15:06:43.404Z,14.92
2018-09-22T15:08:36.400Z,14.86
2018-09-22T15:09:36.452Z,14.77
2018-09-22T15:11:29.448Z,14.59
2018-09-22T15:12:29.514Z,14.69
2018-09-22T15:14:22.507Z,14.58
2018-09-22T15:15:22.564Z,14.44
2018-09-22T15:17:15.598Z,14.32
2018-09-22T15:18:15.614Z,14.30
2018-09-22T15:20:08.610Z,14.14
2018-09-22T15:21:08.667Z,14.22
2018-09-22T15:23:01.655Z,14.08
2018-09-22T15:24:01.715Z,14.18
2018-09-22T15:25:54.714Z,14.07
2018-09-22T15:26:54.769Z,14.12
2018-09-22T15:28:47.779Z,14.12
2018-09-22T15:29:47.823Z,13.99
2018-09-22T15:31:40.810Z,14.04
2018-09-22T15:32:40.874Z,13.95
2018-09-22T15:34:33.866Z,14.00
2018-09-22T15:35:33.921Z,13.95
2018-09-22T15:37:26.910Z,13.97
2018-09-22T15:38:26.974Z,13.93
2018-09-22T15:40:19.964Z,13.87
2018-09-22T15:41:20.017Z,13.86
2018-09-22T15:43:13.011Z,13.78
2018-09-22T15:44:13.064Z,13.81
2018-09-22T15:46:06.064Z,13.77
2018-09-22T15:47:06.120Z,13.68
2018-09-22T15:48:59.108Z,13.74
2018-09-22T15:49:59.168Z,13.67
2018-09-22T15:51:52.163Z,13.77
2018-09-22T15:52:52.218Z,13.65
2018-09-22T15:54:45.236Z,13.63
2018-09-22T15:55:45.261Z,13.67
2018-09-22T15:57:38.248Z,13.62
2018-09-22T15:58:38.309Z,13.60
2018-09-22T16:00:31.301Z,13.70
2018-09-22T16:01:31.358Z,13.70
2018-09-22T16:03:24.351Z,13.68
2018-09-22T16:04:24.407Z,13.67
2018-09-22T16:06:17.468Z,13.67
2018-09-22T16:07:17.517Z,13.72
2018-09-22T16:09:10.569Z,13.71
2018-09-22T16:10:10.568Z,13.57
2018-09-22T16:12:03.560Z,13.53
2018-09-22T16:13:03.614Z,13.52
2018-09-22T16:14:56.599Z,13.52
2018-09-22T16:15:56.671Z,13.50
2018-09-22T16:17:49.656Z,13.57
2018-09-22T16:18:49.710Z,13.54
2018-09-22T16:20:42.710Z,13.63
2018-09-22T16:21:42.827Z,13.59
2018-09-22T16:23:35.750Z,13.59
2018-09-22T16:24:35.811Z,13.56
2018-09-22T16:26:28.803Z,13.53
2018-09-22T16:27:28.855Z,13.42
2018-09-22T16:29:21.838Z,13.49
2018-09-22T16:30:21.899Z,13.46
2018-09-22T16:32:15.432Z,13.53
2018-09-22T16:33:14.948Z,13.49
2018-09-22T16:35:07.995Z,13.44
2018-09-22T16:36:07.997Z,13.46
2018-09-22T16:38:00.991Z,13.50
2018-09-22T16:39:01.048Z,13.41
2018-09-22T16:40:54.041Z,13.42
2018-09-22T16:41:54.100Z,13.44
2018-09-22T16:43:47.088Z,13.42
2018-09-22T16:44:47.145Z,13.47
2018-09-22T16:46:40.150Z,13.52
2018-09-22T16:47:40.195Z,13.47
2018-09-22T16:49:33.228Z,13.46
2018-09-22T16:50:33.300Z,13.52
2018-09-22T16:52:26.237Z,13.52
2018-09-22T16:53:26.289Z,13.46
2018-09-22T16:55:19.276Z,13.52
2018-09-22T16:56:19.335Z,13.57
2018-09-22T16:58:12.326Z,13.60
2018-09-22T16:59:12.382Z,13.50
2018-09-22T17:01:05.367Z,13.44
2018-09-22T17:02:05.427Z,13.53
2018-09-22T17:03:58.421Z,13.41
2018-09-22T17:04:58.761Z,13.42
2018-09-22T17:06:51.463Z,13.44
2018-09-22T17:07:51.518Z,13.42
2018-09-22T17:09:44.551Z,13.39
2018-09-22T17:10:44.572Z,13.30
2018-09-22T17:12:37.604Z,13.38
2018-09-22T17:13:37.611Z,13.37
2018-09-22T17:15:30.603Z,13.27
2018-09-22T17:16:30.755Z,13.27
2018-09-22T17:18:23.658Z,13.28
2018-09-22T17:19:23.712Z,13.22
2018-09-22T17:21:16.694Z,13.19
2018-09-22T17:22:16.758Z,13.12
2018-09-22T17:24:09.748Z,13.15
2018-09-22T17:25:09.800Z,13.18
2018-09-22T17:27:02.783Z,13.09
2018-09-22T17:28:02.840Z,13.19
2018-09-22T17:29:55.831Z,13.12
2018-09-22T17:30:55.885Z,13.22
2018-09-22T17:32:48.869Z,13.13
2018-09-22T17:33:50.161Z,13.20
2018-09-22T17:35:41.922Z,13.18
2018-09-22T17:36:41.973Z,13.22
2018-09-22T17:38:34.991Z,13.15
2018-09-22T17:39:35.040Z,13.05
2018-09-22T17:41:28.024Z,13.20
2018-09-22T17:42:28.078Z,13.05
2018-09-22T17:44:21.582Z,13.05
2018-09-22T17:45:21.634Z,13.04
2018-09-22T17:47:14.617Z,13.04
2018-09-22T17:48:14.679Z,12.95
2018-09-22T17:50:07.673Z,13.09
2018-09-22T17:51:07.720Z,12.98
2018-09-22T17:53:00.698Z,13.03
2018-09-22T17:54:00.764Z,12.95
2018-09-22T17:55:53.753Z,12.94
2018-09-22T17:56:53.807Z,12.98
2018-09-22T17:58:46.791Z,12.90
2018-09-22T17:59:46.848Z,12.90
2018-09-22T18:01:39.850Z,12.87
2018-09-22T18:02:39.903Z,12.86
2018-09-22T18:04:32.898Z,12.87
2018-09-22T18:05:32.951Z,12.87
2018-09-22T18:07:25.939Z,12.75
2018-09-22T18:08:26.001Z,12.90
2018-09-22T18:10:19.006Z,12.87
2018-09-22T18:11:19.050Z,12.90
2018-09-22T18:13:12.030Z,12.93
2018-09-22T18:14:12.090Z,12.79
2018-09-22T18:16:05.082Z,12.91
2018-09-22T18:17:05.131Z,12.95
2018-09-22T18:18:58.117Z,12.91
2018-09-22T18:19:58.175Z,12.90
2018-09-22T18:21:51.166Z,12.87
2018-09-22T18:22:51.217Z,12.85
2018-09-22T18:24:44.214Z,12.80
2018-09-22T18:25:44.269Z,12.79
2018-09-22T18:27:37.282Z,12.83
2018-09-22T18:28:37.329Z,12.82
2018-09-22T18:30:30.328Z,12.78
2018-09-22T18:31:30.381Z,12.79
2018-09-22T18:33:23.370Z,12.75